createdAt,value
2023-01-11T06:06:02.032Z,11.43
2023-01-11T06:08:28.686Z,10.93
2023-01-11T06:10:57.002Z,11.30
2023-01-11T06:13:27.740Z,10.00
2023-01-11T06:15:55.162Z,10.35
2023-01-11T06:18:22.046Z,11.15
2023-01-11T06:20:53.293Z,12.18
2023-01-11T06:23:20.803Z,11.35
2023-01-11T06:25:47.723Z,11.98
2023-01-11T06:28:14.713Z,11.25
2023-01-11T06:30:41.494Z,13.23
2023-01-11T06:33:08.679Z,12.18
2023-01-11T06:35:40.786Z,12.50
2023-01-11T06:38:10.463Z,12.30
2023-01-11T06:40:39.136Z,12.68
2023-01-11T06:43:06.327Z,11.95
2023-01-11T06:45:33.542Z,12.35
2023-01-11T06:48:00.915Z,12.95
2023-01-11T06:50:27.597Z,13.55
2023-01-11T06:53:00.344Z,11.95
2023-01-11T06:55:28.201Z,12.85
2023-01-11T06:57:54.863Z,12.95
2023-01-11T07:00:22.176Z,13.18
2023-01-11T07:02:49.844Z,13.75
2023-01-11T07:05:19.181Z,13.15
2023-01-11T07:07:46.178Z,12.88
2023-01-11T07:10:15.961Z,12.98
2023-01-11T07:12:42.678Z,12.98
2023-01-11T07:15:10.783Z,13.65
2023-01-11T07:17:37.868Z,12.63
2023-01-11T07:20:05.934Z,13.75
2023-01-11T07:22:36.631Z,14.15
2023-01-11T07:25:05.087Z,14.10
2023-01-11T07:27:32.146Z,13.40
2023-01-11T07:30:01.532Z,13.73
2023-01-11T07:32:29.025Z,13.52
2023-01-11T07:34:56.176Z,13.50
2023-01-11T07:37:28.210Z,14.10
2023-01-11T07:39:55.818Z,13.50
2023-01-11T07:42:41.011Z,12.75
2023-01-11T07:45:08.319Z,12.98
2023-01-11T07:47:34.979Z,13.55
2023-01-11T07:50:01.820Z,12.88
2023-01-11T07:52:28.466Z,13.45
2023-01-11T07:54:55.149Z,13.15
2023-01-11T07:57:21.808Z,14.18
2023-01-11T07:59:48.390Z,13.18
2023-01-11T08:02:15.205Z,12.93
2023-01-11T08:04:44.523Z,12.75
2023-01-11T08:07:11.138Z,12.43
2023-01-11T08:09:37.880Z,12.68
2023-01-11T08:12:23.013Z,13.10
2023-01-11T08:14:49.607Z,12.32
2023-01-11T08:17:16.747Z,12.20
2023-01-11T08:19:43.513Z,11.88
2023-01-11T08:22:10.639Z,12.68
2023-01-11T08:24:37.381Z,13.02
2023-01-11T08:27:04.867Z,13.10
2023-01-11T08:29:32.080Z,12.48
2023-01-11T08:31:59.478Z,13.00
2023-01-11T08:34:30.411Z,12.50
2023-01-11T08:36:57.610Z,11.98
2023-01-11T08:39:24.795Z,12.73
2023-01-11T08:41:51.403Z,12.60
2023-01-11T08:44:29.192Z,12.25
2023-01-11T08:46:59.830Z,12.07
2023-01-11T08:49:26.437Z,12.65
2023-01-11T08:51:53.042Z,12.02
2023-01-11T08:54:19.671Z,11.70
2023-01-11T08:56:46.347Z,13.00
2023-01-11T08:59:13.468Z,12.55
2023-01-11T09:01:40.146Z,12.98
2023-01-11T09:04:23.853Z,11.80
2023-01-11T09:06:52.568Z,11.85
2023-01-11T09:09:19.186Z,12.27
2023-01-11T09:11:54.766Z,12.45
2023-01-11T09:14:23.051Z,12.32
2023-01-11T09:16:49.878Z,13.35
2023-01-11T09:19:16.642Z,12.00
2023-01-11T09:21:44.822Z,11.85
2023-01-11T09:24:11.630Z,11.38
2023-01-11T09:26:38.542Z,11.10
2023-01-11T09:29:05.365Z,11.68
2023-01-11T09:31:32.206Z,12.32
2023-01-11T09:33:58.848Z,11.57
2023-01-11T09:36:27.796Z,11.13
2023-01-11T09:38:57.405Z,10.70
2023-01-11T09:41:50.504Z,11.48
2023-01-11T09:44:25.425Z,10.00
2023-01-11T09:47:08.399Z,10.05
2023-01-11T09:49:40.709Z,10.80
2023-01-11T09:52:29.328Z,10.07
2023-01-11T09:54:58.536Z,10.80
2023-01-11T09:57:31.041Z,10.07
2023-01-11T10:00:12.739Z,10.85
2023-01-11T10:03:34.913Z,10.95
2023-01-11T10:06:04.389Z,10.90
2023-01-11T10:18:22.821Z,9.68
2023-01-11T10:18:40.287Z,10.02
2023-01-11T10:20:46.552Z,10.57
2023-01-11T10:23:28.074Z,9.65
2023-01-11T10:25:58.715Z,9.27
2023-01-11T10:28:35.182Z,11.63
2023-01-11T10:31:28.469Z,10.15
2023-01-11T10:34:03.948Z,8.68
2023-01-11T10:37:14.188Z,8.20
2023-01-11T10:40:11.195Z,8.85
2023-01-11T10:42:47.276Z,7.35
2023-01-11T10:45:18.603Z,7.85
2023-01-11T10:48:20.776Z,6.80
2023-01-11T10:50:51.813Z,6.53
2023-01-11T10:53:31.971Z,7.55
2023-01-11T10:56:15.265Z,9.07
2023-01-11T10:58:49.994Z,7.07
2023-01-11T11:01:35.167Z,6.90
2023-01-11T11:04:19.891Z,7.05
2023-01-11T11:07:11.859Z,7.00
2023-01-11T11:09:44.299Z,6.47
2023-01-11T11:12:29.078Z,7.20
2023-01-11T11:15:20.748Z,6.80
2023-01-11T11:17:53.005Z,6.47
2023-01-11T11:20:24.367Z,7.20
2023-01-11T11:22:53.042Z,6.75
2023-01-11T11:25:43.378Z,8.27
2023-01-11T11:28:33.323Z,6.43
2023-01-11T11:31:08.166Z,5.90
2023-01-11T11:33:38.054Z,6.03
2023-01-11T11:36:13.079Z,7.00
2023-01-11T11:38:42.629Z,6.53
2023-01-11T11:41:17.335Z,7.03
2023-01-11T11:43:46.740Z,6.65
2023-01-11T11:46:20.289Z,6.32
2023-01-11T11:49:08.736Z,6.95
2023-01-11T11:54:02.930Z,6.25
2023-01-11T11:56:41.747Z,6.85
2023-01-11T11:59:12.268Z,7.95
2023-01-11T12:01:47.066Z,8.02
2023-01-11T12:04:32.321Z,7.53
2023-01-11T12:07:19.395Z,6.97
2023-01-11T12:09:56.826Z,6.85
2023-01-11T12:12:26.920Z,6.97
2023-01-11T12:15:18.338Z,6.50
2023-01-11T12:17:45.070Z,6.50
2023-01-11T12:20:23.683Z,7.32
2023-01-11T12:22:51.150Z,6.50
2023-01-11T12:25:17.696Z,6.90
2023-01-11T12:27:50.589Z,6.53
2023-01-11T12:30:23.152Z,7.18
2023-01-11T12:33:16.479Z,7.35
2023-01-11T12:35:56.297Z,6.28
2023-01-11T12:38:39.234Z,6.85
2023-01-11T12:41:50.219Z,7.05
2023-01-11T12:44:32.650Z,7.10
2023-01-11T12:47:23.556Z,6.40
2023-01-11T12:50:00.798Z,8.07
2023-01-11T12:52:45.032Z,7.43
2023-01-11T12:55:33.677Z,7.40
2023-01-11T12:58:08.076Z,8.13
2023-01-11T13:00:50.975Z,7.18
2023-01-11T13:03:54.685Z,7.68
2023-01-11T13:06:33.226Z,8.10
2023-01-11T13:09:24.554Z,7.10
2023-01-11T13:11:54.220Z,7.35
2023-01-11T13:14:32.693Z,7.95
2023-01-11T13:17:01.459Z,7.55
2023-01-11T13:19:41.284Z,7.93
2023-01-11T13:22:16.183Z,7.78
2023-01-11T13:24:47.802Z,8.63
2023-01-11T13:27:19.530Z,9.00
2023-01-11T13:29:48.672Z,8.98
2023-01-11T13:32:19.995Z,9.10
2023-01-11T13:34:57.802Z,9.50
2023-01-11T13:37:39.669Z,10.23
2023-01-11T13:40:27.783Z,9.13
2023-01-11T13:43:07.175Z,10.35
2023-01-11T13:45:46.582Z,11.63
2023-01-11T13:48:29.732Z,10.38
2023-01-11T13:51:21.254Z,10.10
2023-01-11T13:53:53.917Z,10.15
2023-01-11T13:56:28.378Z,9.95
2023-01-11T13:59:13.723Z,9.90
2023-01-11T14:01:48.276Z,9.95
2023-01-11T14:04:14.938Z,9.23
2023-01-11T14:07:09.255Z,9.77
2023-01-11T14:09:41.936Z,8.85
2023-01-11T14:12:27.598Z,11.48
2023-01-11T14:14:59.900Z,10.32
2023-01-11T14:17:45.083Z,9.60
2023-01-11T14:20:22.901Z,10.23
2023-01-11T14:23:12.061Z,9.50
2023-01-11T14:26:29.925Z,10.10
2023-01-11T14:29:11.399Z,9.20
2023-01-11T14:31:56.163Z,9.90
2023-01-11T14:35:04.093Z,11.85
2023-01-11T14:37:50.671Z,10.60
2023-01-11T14:40:20.177Z,17.92
2023-01-11T14:43:03.054Z,14.27
2023-01-11T14:45:29.783Z,9.52
2023-01-11T14:48:11.507Z,9.43
2023-01-11T14:50:59.041Z,9.75
2023-01-11T14:53:31.665Z,10.48
2023-01-11T14:55:58.281Z,12.10
2023-01-11T14:58:26.184Z,10.48
2023-01-11T15:00:55.788Z,10.93
2023-01-11T15:03:22.340Z,10.57
2023-01-11T15:05:51.579Z,12.38
2023-01-11T15:08:25.467Z,11.52
2023-01-11T15:11:07.773Z,10.25
2023-01-11T15:13:34.367Z,14.05
2023-01-11T15:16:53.576Z,12.20
2023-01-11T15:19:25.327Z,11.77
2023-01-11T15:21:55.611Z,11.57
2023-01-11T15:24:34.254Z,11.57
2023-01-11T15:27:02.274Z,13.45
2023-01-11T15:29:41.531Z,13.98
2023-01-11T15:32:25.117Z,14.02
2023-01-11T15:34:52.309Z,13.50
2023-01-11T15:37:31.453Z,13.48
2023-01-11T15:40:03.171Z,13.82
2023-01-11T15:42:55.660Z,13.63
2023-01-11T15:45:31.435Z,15.63
2023-01-11T15:48:25.308Z,16.45
2023-01-11T15:51:21.312Z,14.57
2023-01-11T15:53:53.928Z,14.10
2023-01-11T15:56:57.868Z,12.88
2023-01-11T15:59:50.623Z,12.93
2023-01-11T16:02:47.084Z,13.68
2023-01-11T16:05:22.300Z,13.40
2023-01-11T16:08:26.273Z,13.70
2023-01-11T16:11:06.294Z,14.57
2023-01-11T16:13:45.360Z,13.82
2023-01-11T16:16:42.897Z,15.10
2023-01-11T16:19:20.042Z,14.80
2023-01-11T16:21:50.262Z,14.50
2023-01-11T16:24:20.424Z,15.38
2023-01-11T16:26:53.541Z,15.15
2023-01-11T16:29:24.707Z,15.68
2023-01-11T16:32:20.365Z,15.80
2023-01-11T16:34:52.042Z,15.45
2023-01-11T16:37:37.582Z,15.82
2023-01-11T16:40:31.746Z,15.93
2023-01-11T16:43:07.465Z,16.75
2023-01-11T16:45:42.884Z,15.82
2023-01-11T16:48:16.630Z,15.90
2023-01-11T16:51:08.197Z,16.52
2023-01-11T16:53:37.889Z,17.30
2023-01-11T16:56:36.629Z,16.17
2023-01-11T16:59:15.175Z,17.40
2023-01-11T17:01:51.353Z,17.65
2023-01-11T17:04:28.705Z,18.48
2023-01-11T17:06:56.613Z,18.80
2023-01-11T17:09:25.900Z,19.48
2023-01-11T17:11:53.196Z,17.40
2023-01-11T17:14:53.561Z,18.75
2023-01-11T17:17:21.106Z,20.80
2023-01-11T17:19:49.841Z,17.15
2023-01-11T17:27:40.735Z,16.13
2023-01-11T17:30:24.600Z,17.23
2023-01-11T17:32:53.557Z,16.45
2023-01-11T17:35:21.824Z,16.95
2023-01-11T17:37:50.561Z,18.75
2023-01-11T17:40:27.337Z,18.08
2023-01-11T17:43:23.746Z,18.25
2023-01-11T17:45:58.413Z,17.67
2023-01-11T17:48:27.567Z,17.10
2023-01-11T17:50:57.320Z,19.23
2023-01-11T17:53:32.317Z,19.08
2023-01-11T17:56:04.682Z,20.33
2023-01-11T17:58:36.192Z,17.95
2023-01-11T18:01:08.677Z,19.63
2023-01-11T18:03:49.570Z,19.95
2023-01-11T18:06:39.927Z,21.00
2023-01-11T18:09:18.419Z,18.45
2023-01-11T18:14:21.875Z,18.65
2023-01-11T18:16:55.964Z,19.13
2023-01-11T18:19:30.372Z,19.33
2023-01-11T18:21:56.999Z,17.23
2023-01-11T18:24:39.612Z,17.60
2023-01-11T18:27:26.103Z,16.67
2023-01-11T18:29:54.503Z,16.63
2023-01-11T18:32:21.459Z,16.80
2023-01-11T18:34:51.246Z,17.67
2023-01-11T18:37:18.639Z,16.98
2023-01-11T18:39:45.448Z,18.00
2023-01-11T18:42:18.966Z,16.60
2023-01-11T18:44:49.255Z,17.35
2023-01-11T18:47:20.435Z,17.90
2023-01-11T18:49:47.415Z,19.38
2023-01-11T18:52:14.471Z,20.55
2023-01-11T18:54:42.289Z,18.98
2023-01-11T18:57:09.635Z,19.67
2023-01-11T18:59:36.662Z,19.63
2023-01-11T19:02:28.114Z,18.88
2023-01-11T19:04:56.796Z,18.48
2023-01-11T19:07:25.491Z,19.27
2023-01-11T19:09:52.255Z,18.55
2023-01-11T19:12:18.919Z,17.92
2023-01-11T19:14:45.666Z,18.02
2023-01-11T19:17:13.524Z,19.17
2023-01-11T19:19:40.207Z,18.67
2023-01-11T19:22:06.900Z,18.10
2023-01-11T19:24:33.641Z,19.33
2023-01-11T19:27:00.476Z,19.52
2023-01-11T19:29:27.603Z,20.65
2023-01-11T19:31:55.757Z,20.33
2023-01-11T19:34:23.088Z,21.27
2023-01-11T19:36:51.628Z,21.25
2023-01-11T19:41:54.302Z,19.23
2023-01-11T19:44:21.803Z,19.65
2023-01-11T19:46:52.991Z,20.02
2023-01-11T19:49:23.998Z,20.40
2023-01-11T19:51:51.174Z,20.88
2023-01-11T19:54:20.911Z,20.52
2023-01-11T19:56:49.373Z,20.10
2023-01-11T19:59:16.077Z,17.50
2023-01-11T20:01:43.482Z,16.38
2023-01-11T20:04:12.197Z,16.85
2023-01-11T20:06:41.328Z,19.60
2023-01-11T20:09:11.050Z,20.40
2023-01-11T20:11:37.779Z,20.30
2023-01-11T20:14:04.397Z,19.30
2023-01-11T20:16:31.028Z,17.70
2023-01-11T20:18:58.131Z,17.42
2023-01-11T20:21:28.575Z,17.40
2023-01-11T20:23:57.647Z,17.85
2023-01-11T20:26:25.833Z,17.23
2023-01-11T20:28:56.457Z,17.65
2023-01-11T20:31:28.211Z,16.48
2023-01-11T20:33:56.227Z,17.05
2023-01-11T20:36:23.916Z,18.83
2023-01-11T20:38:51.739Z,18.90
2023-01-11T20:41:38.990Z,15.57
2023-01-11T20:44:06.936Z,13.50
2023-01-11T20:46:34.725Z,13.57
2023-01-11T20:49:02.029Z,11.20
2023-01-11T20:51:28.816Z,10.63
2023-01-11T20:53:55.994Z,11.63
2023-01-11T20:56:23.017Z,11.35
2023-01-11T20:58:51.631Z,11.45
2023-01-11T21:01:23.869Z,11.38
2023-01-11T21:03:50.521Z,11.90
2023-01-11T21:06:17.196Z,11.77
2023-01-11T21:08:43.923Z,10.93
2023-01-11T21:11:12.898Z,13.20
2023-01-11T21:13:40.133Z,13.10
2023-01-11T21:16:09.556Z,13.88
2023-01-11T21:18:36.432Z,14.60
2023-01-11T21:21:03.562Z,14.68
2023-01-11T21:23:30.473Z,15.20
2023-01-11T21:25:57.631Z,15.80
2023-01-11T21:28:24.269Z,13.55
2023-01-11T21:30:51.158Z,13.07
2023-01-11T21:33:17.894Z,13.77
2023-01-11T21:35:44.649Z,13.55
2023-01-11T21:38:11.428Z,14.73
2023-01-11T21:40:38.124Z,13.52
2023-01-11T21:43:07.721Z,13.38
2023-01-11T21:45:34.434Z,12.50
2023-01-11T21:48:01.486Z,12.52
2023-01-11T21:50:28.171Z,13.02
2023-01-11T21:52:55.239Z,12.82
2023-01-11T21:55:21.884Z,11.93
2023-01-11T21:57:48.897Z,12.52
2023-01-11T22:00:17.437Z,11.77
2023-01-11T22:05:10.584Z,10.57
2023-01-11T22:07:39.492Z,10.10
2023-01-11T22:10:06.382Z,10.48
2023-01-11T22:12:33.748Z,9.75
2023-01-11T22:15:00.370Z,10.15
2023-01-11T22:17:26.962Z,9.95
2023-01-11T22:19:53.656Z,9.60
2023-01-11T22:22:20.267Z,10.00
2023-01-11T22:24:46.875Z,10.30
2023-01-11T22:27:13.563Z,9.02
2023-01-11T22:29:43.161Z,8.70
2023-01-11T22:32:09.772Z,8.45
2023-01-11T22:34:39.071Z,8.77
2023-01-11T22:37:06.545Z,6.28
2023-01-11T22:39:33.295Z,6.75
2023-01-11T22:41:59.985Z,6.60
2023-01-11T22:44:26.523Z,5.53
2023-01-11T22:46:53.240Z,6.07
2023-01-11T22:49:19.871Z,5.95
2023-01-11T22:51:46.890Z,5.88
2023-01-11T22:54:14.305Z,5.55
2023-01-11T22:56:41.078Z,5.20
2023-01-11T22:59:07.952Z,5.18
2023-01-11T23:01:39.567Z,5.07
2023-01-11T23:04:07.927Z,5.25
2023-01-11T23:06:38.279Z,3.92
2023-01-11T23:09:08.439Z,4.15
2023-01-11T23:11:58.062Z,3.92
